createdAt,value
2018-11-25T00:00:32.387Z,53.10
2018-11-25T00:03:00.854Z,48.73
2018-11-25T00:05:29.104Z,48.33
2018-11-25T00:07:57.478Z,51.57
2018-11-25T00:10:25.781Z,46.73
2018-11-25T00:12:54.342Z,47.13
2018-11-25T00:15:22.734Z,47.13
2018-11-25T00:17:51.331Z,44.53
2018-11-25T00:20:20.421Z,44.00
2018-11-25T00:22:48.711Z,44.37
2018-11-25T00:25:16.865Z,44.07
2018-11-25T00:27:45.128Z,39.53
2018-11-25T00:30:14.822Z,38.93
2018-11-25T00:32:45.394Z,47.30
2018-11-25T00:35:14.792Z,44.37
2018-11-25T00:37:53.884Z,43.73
2018-11-25T00:40:22.944Z,47.77
2018-11-25T00:42:51.347Z,43.70
2018-11-25T00:45:31.111Z,45.77
2018-11-25T00:48:14.839Z,46.10
2018-11-25T00:50:59.824Z,47.03
2018-11-25T00:53:37.108Z,40.27
2018-11-25T00:56:05.955Z,45.53
2018-11-25T00:58:34.145Z,41.90
2018-11-25T01:01:02.394Z,40.77
2018-11-25T01:03:30.625Z,43.20
2018-11-25T01:05:58.922Z,41.67
2018-11-25T01:08:27.184Z,41.93
2018-11-25T01:10:55.437Z,41.00
2018-11-25T01:13:23.845Z,45.27
2018-11-25T01:15:52.243Z,41.17
2018-11-25T01:18:20.413Z,39.47
2018-11-25T01:20:48.630Z,40.43
2018-11-25T01:23:17.024Z,38.87
2018-11-25T01:25:45.354Z,42.60
2018-11-25T01:28:13.776Z,39.07
2018-11-25T01:30:42.001Z,38.73
2018-11-25T01:33:10.166Z,34.77
2018-11-25T01:35:38.394Z,35.90
2018-11-25T01:38:06.605Z,36.43
2018-11-25T01:40:35.216Z,43.00
2018-11-25T01:43:04.585Z,40.63
2018-11-25T01:45:33.608Z,36.90
2018-11-25T01:48:01.959Z,37.27
2018-11-25T01:50:30.051Z,37.53
2018-11-25T01:52:58.299Z,40.33
2018-11-25T01:55:26.480Z,38.97
2018-11-25T01:57:54.669Z,39.70
2018-11-25T02:00:22.983Z,39.03
2018-11-25T02:02:51.156Z,40.83
2018-11-25T02:05:19.544Z,38.53
2018-11-25T02:07:47.723Z,39.40
2018-11-25T02:10:21.631Z,44.70
2018-11-25T02:12:50.136Z,38.23
2018-11-25T02:15:18.407Z,37.27
2018-11-25T02:17:46.790Z,39.03
2018-11-25T02:20:19.068Z,40.10
2018-11-25T02:22:47.265Z,43.20
2018-11-25T02:25:15.471Z,45.33
2018-11-25T02:27:43.826Z,47.80
2018-11-25T02:30:12.740Z,48.87
2018-11-25T02:32:41.171Z,47.57
2018-11-25T02:35:10.114Z,42.87
2018-11-25T02:37:38.204Z,45.13
2018-11-25T02:40:08.278Z,45.07
2018-11-25T02:42:36.453Z,41.27
2018-11-25T02:45:05.300Z,39.50
2018-11-25T02:47:33.617Z,42.73
2018-11-25T02:50:01.913Z,39.37
2018-11-25T02:52:30.441Z,41.50
2018-11-25T02:54:58.759Z,43.10
2018-11-25T02:57:27.087Z,37.10
2018-11-25T02:59:55.276Z,40.20
2018-11-25T03:02:23.516Z,41.90
2018-11-25T03:04:51.686Z,37.53
2018-11-25T03:07:19.797Z,37.17
2018-11-25T03:09:48.093Z,40.60
2018-11-25T03:12:16.468Z,39.37
2018-11-25T03:14:44.629Z,34.80
2018-11-25T03:17:13.218Z,37.03
2018-11-25T03:19:41.347Z,36.10
2018-11-25T03:22:09.616Z,39.63
2018-11-25T03:24:37.743Z,41.20
2018-11-25T03:27:05.758Z,39.40
2018-11-25T03:29:34.144Z,36.13
2018-11-25T03:32:02.366Z,40.50
2018-11-25T03:34:30.756Z,35.30
2018-11-25T03:36:59.101Z,32.13
2018-11-25T03:39:27.933Z,32.87
2018-11-25T03:41:56.233Z,31.00
2018-11-25T03:44:24.445Z,31.17
2018-11-25T03:46:52.595Z,28.83
2018-11-25T03:49:20.896Z,28.10
2018-11-25T03:51:49.090Z,28.63
2018-11-25T03:54:17.401Z,30.07
2018-11-25T03:56:45.615Z,27.60
2018-11-25T03:59:14.077Z,29.73
2018-11-25T04:01:42.171Z,32.07
2018-11-25T04:04:10.353Z,28.77
2018-11-25T04:06:38.598Z,32.73
2018-11-25T04:09:08.035Z,29.87
2018-11-25T04:11:36.587Z,32.77
2018-11-25T04:14:04.967Z,32.87
2018-11-25T04:16:33.308Z,35.37
2018-11-25T04:19:01.554Z,33.47
2018-11-25T04:21:29.765Z,31.63
2018-11-25T04:23:58.069Z,38.03
2018-11-25T04:26:26.293Z,34.77
2018-11-25T04:28:54.933Z,38.73
2018-11-25T04:31:23.347Z,41.57
2018-11-25T04:33:51.764Z,40.03
2018-11-25T04:36:20.000Z,42.70
2018-11-25T04:38:48.353Z,42.43
2018-11-25T04:41:17.336Z,41.90
2018-11-25T04:43:45.865Z,44.57
2018-11-25T04:46:14.131Z,45.83
2018-11-25T04:48:42.800Z,45.73
2018-11-25T04:51:12.147Z,51.33
2018-11-25T04:53:40.268Z,47.00
2018-11-25T04:56:08.821Z,49.37
2018-11-25T04:58:37.407Z,44.10
2018-11-25T05:01:06.553Z,51.67
2018-11-25T05:03:35.510Z,56.73
2018-11-25T05:06:03.702Z,53.03
2018-11-25T05:08:31.821Z,56.87
2018-11-25T05:11:00.177Z,49.87
2018-11-25T05:13:28.435Z,55.20
2018-11-25T05:15:56.734Z,63.00
2018-11-25T05:18:25.423Z,53.70
2018-11-25T05:20:54.333Z,57.40
2018-11-25T05:23:22.573Z,60.60
2018-11-25T05:25:51.622Z,56.57
2018-11-25T05:28:19.876Z,56.57
2018-11-25T05:30:50.389Z,56.57
2018-11-25T05:33:20.350Z,54.33
2018-11-25T05:35:48.922Z,61.27
2018-11-25T05:38:18.639Z,49.63
2018-11-25T05:40:46.904Z,59.57
2018-11-25T05:43:15.633Z,55.20
2018-11-25T05:45:43.977Z,54.83
2018-11-25T05:48:12.213Z,60.93
2018-11-25T05:50:40.383Z,58.73
2018-11-25T05:53:09.305Z,62.27
2018-11-25T05:55:37.796Z,60.17
2018-11-25T05:58:07.282Z,55.67
2018-11-25T06:00:36.327Z,59.47
2018-11-25T06:03:05.115Z,59.93
2018-11-25T06:05:33.452Z,58.43
2018-11-25T06:08:02.941Z,55.87
2018-11-25T06:10:31.121Z,59.17
2018-11-25T06:12:59.595Z,59.63
2018-11-25T06:15:27.881Z,57.27
2018-11-25T06:17:56.092Z,60.43
2018-11-25T06:20:24.314Z,59.40
2018-11-25T06:22:52.940Z,57.63
2018-11-25T06:25:21.357Z,49.83
2018-11-25T06:27:50.365Z,51.67
2018-11-25T06:30:19.812Z,57.50
2018-11-25T06:32:48.278Z,57.47
2018-11-25T06:35:16.940Z,55.73
2018-11-25T06:37:45.218Z,53.37
2018-11-25T06:40:15.621Z,51.77
2018-11-25T06:42:44.488Z,54.20
2018-11-25T06:45:16.322Z,47.37
2018-11-25T06:47:44.408Z,53.97
2018-11-25T06:50:12.935Z,49.27
2018-11-25T06:52:41.622Z,52.57
2018-11-25T06:55:10.415Z,50.70
2018-11-25T06:57:38.953Z,52.13
2018-11-25T07:00:09.635Z,51.87
2018-11-25T07:02:37.847Z,52.27
2018-11-25T07:05:06.685Z,55.97
2018-11-25T07:07:34.728Z,51.63
2018-11-25T07:10:03.085Z,50.93
2018-11-25T07:12:31.241Z,48.87
2018-11-25T07:14:59.378Z,50.43
2018-11-25T07:17:27.657Z,53.37
2018-11-25T07:19:55.897Z,59.70
2018-11-25T07:22:24.411Z,55.13
2018-11-25T07:24:52.529Z,48.27
2018-11-25T07:27:20.884Z,52.17
2018-11-25T07:29:49.498Z,50.00
2018-11-25T07:32:17.983Z,54.10
2018-11-25T07:34:46.409Z,51.40
2018-11-25T07:37:14.718Z,50.93
2018-11-25T07:39:42.862Z,49.00
2018-11-25T07:42:11.234Z,55.83
2018-11-25T07:44:39.347Z,51.60
2018-11-25T07:47:07.640Z,50.70
2018-11-25T07:49:35.922Z,48.03
2018-11-25T07:52:04.481Z,54.17
2018-11-25T07:54:32.702Z,50.60
2018-11-25T07:57:00.864Z,48.93
2018-11-25T07:59:29.128Z,47.87
2018-11-25T08:01:57.993Z,51.00
2018-11-25T08:04:26.684Z,50.63
2018-11-25T08:06:54.948Z,51.90
2018-11-25T08:09:23.206Z,51.30
2018-11-25T08:11:51.723Z,50.13
2018-11-25T08:14:19.921Z,47.23
2018-11-25T08:16:48.025Z,47.70
2018-11-25T08:19:18.064Z,44.40
2018-11-25T08:21:47.208Z,42.60
2018-11-25T08:24:15.691Z,38.40
2018-11-25T08:26:43.915Z,42.80
2018-11-25T08:29:12.672Z,47.93
2018-11-25T08:31:44.655Z,45.67
2018-11-25T08:34:13.242Z,43.90
2018-11-25T08:36:42.205Z,40.60
2018-11-25T08:39:10.977Z,44.43
2018-11-25T08:41:39.167Z,35.03
2018-11-25T08:44:07.620Z,43.07
2018-11-25T08:46:35.798Z,39.47
2018-11-25T08:49:04.322Z,42.10
2018-11-25T08:51:32.493Z,42.00
2018-11-25T08:54:00.733Z,41.53
2018-11-25T08:56:29.226Z,37.80
2018-11-25T08:58:57.636Z,34.60
2018-11-25T09:01:25.882Z,39.43
2018-11-25T09:03:54.371Z,38.13
2018-11-25T09:06:23.199Z,36.47
2018-11-25T09:08:53.171Z,39.37
2018-11-25T09:11:22.548Z,35.90
2018-11-25T09:13:51.231Z,32.37
2018-11-25T09:16:19.512Z,32.47
2018-11-25T09:18:48.107Z,30.77
2018-11-25T09:21:16.680Z,32.20
2018-11-25T09:23:45.480Z,31.53
2018-11-25T09:26:13.969Z,35.27
2018-11-25T09:28:42.375Z,30.83
2018-11-25T09:31:10.705Z,34.23
2018-11-25T09:33:39.048Z,30.13
2018-11-25T09:36:07.330Z,34.20
2018-11-25T09:38:37.266Z,34.40
2018-11-25T09:41:06.299Z,31.97
2018-11-25T09:43:35.469Z,27.63
2018-11-25T09:46:04.600Z,30.53
2018-11-25T09:48:38.723Z,35.67
2018-11-25T09:51:08.327Z,32.77
2018-11-25T09:53:38.022Z,33.97
2018-11-25T09:56:07.678Z,35.33
2018-11-25T09:58:38.871Z,35.77
2018-11-25T10:01:08.614Z,37.90
2018-11-25T10:03:36.791Z,34.13
2018-11-25T10:06:05.565Z,34.77
2018-11-25T10:08:34.061Z,32.87
2018-11-25T10:11:03.050Z,29.90
2018-11-25T10:13:34.387Z,25.50
2018-11-25T10:16:02.985Z,25.33
2018-11-25T10:18:32.017Z,25.87
2018-11-25T10:21:00.403Z,26.93
2018-11-25T10:23:28.523Z,29.07
2018-11-25T10:25:56.938Z,30.10
2018-11-25T10:28:25.059Z,28.33
2018-11-25T10:30:53.170Z,29.30
2018-11-25T10:33:21.377Z,24.70
2018-11-25T10:35:49.698Z,28.33
2018-11-25T10:38:19.100Z,26.70
2018-11-25T10:40:48.027Z,25.93
2018-11-25T10:43:17.103Z,29.87
2018-11-25T10:45:47.456Z,30.83
2018-11-25T10:48:15.642Z,28.63
2018-11-25T10:50:43.718Z,22.00
2018-11-25T10:53:12.111Z,23.20
2018-11-25T10:55:40.163Z,24.40
2018-11-25T10:58:15.110Z,21.83
2018-11-25T11:00:49.745Z,24.80
2018-11-25T11:03:23.800Z,27.27
2018-11-25T11:05:54.801Z,27.73
2018-11-25T11:08:23.097Z,22.93
2018-11-25T11:10:51.303Z,23.33
2018-11-25T11:13:21.027Z,21.50
2018-11-25T11:15:49.148Z,21.47
2018-11-25T11:18:17.596Z,22.63
2018-11-25T11:20:46.041Z,23.97
2018-11-25T11:23:14.330Z,23.10
2018-11-25T11:25:42.480Z,19.03
2018-11-25T11:28:10.888Z,19.13
2018-11-25T11:30:39.077Z,19.40
2018-11-25T11:33:07.397Z,22.30
2018-11-25T11:35:35.478Z,22.60
2018-11-25T11:38:03.632Z,25.10
2018-11-25T11:40:31.806Z,26.33
2018-11-25T11:43:00.037Z,23.73
2018-11-25T11:45:28.425Z,28.53
2018-11-25T11:47:58.881Z,26.17
2018-11-25T11:50:27.901Z,26.57
2018-11-25T11:53:24.119Z,25.63
2018-11-25T11:55:52.357Z,29.23
2018-11-25T11:58:20.552Z,26.60
2018-11-25T12:00:49.405Z,32.37
2018-11-25T12:03:26.106Z,29.23
2018-11-25T12:05:45.777Z,31.77
2018-11-25T12:08:14.092Z,34.70
2018-11-25T12:10:42.867Z,36.03
2018-11-25T12:13:11.202Z,31.07
2018-11-25T12:15:39.482Z,30.47
2018-11-25T12:18:08.020Z,33.07
2018-11-25T12:20:36.272Z,32.90
2018-11-25T12:23:04.526Z,29.93
2018-11-25T12:25:33.100Z,34.37
2018-11-25T12:28:01.157Z,36.33
2018-11-25T12:30:29.699Z,37.23
2018-11-25T12:32:57.938Z,35.93
2018-11-25T12:35:26.203Z,34.23
2018-11-25T12:37:54.861Z,32.03
2018-11-25T12:40:23.135Z,37.00
2018-11-25T12:42:52.776Z,37.00
2018-11-25T12:45:20.981Z,36.27
2018-11-25T12:47:52.119Z,38.37
2018-11-25T12:50:28.401Z,43.83
2018-11-25T12:52:59.601Z,40.57
2018-11-25T12:55:27.487Z,43.43
2018-11-25T12:57:56.265Z,43.97
2018-11-25T13:00:26.180Z,41.03
2018-11-25T13:02:57.047Z,54.97
2018-11-25T13:05:25.494Z,50.47
2018-11-25T13:07:54.332Z,44.63
2018-11-25T13:10:22.760Z,49.53
2018-11-25T13:12:51.298Z,47.00
2018-11-25T13:15:19.888Z,50.23
2018-11-25T13:17:49.061Z,51.20
2018-11-25T13:20:18.760Z,52.60
2018-11-25T13:22:46.965Z,53.63
2018-11-25T13:25:15.682Z,49.83
2018-11-25T13:27:44.043Z,56.23
2018-11-25T13:30:13.213Z,50.40
2018-11-25T13:32:42.696Z,58.13
